Time;durP1;ratioP1;P1;durP2;ratioP2;P2;SDS_P1;SDS_P2;PMS_P1;PMS_P2;Temp;Humidity;BMP_temperature;BMP_pressure;BME280_temperature;BME280_humidity;BME280_pressure;Samples;Min_cycle;Max_cycle;Signal;HPM_P1;HPM_P2
2023/03/15 00:01:46;;;;;;;65.40;39.72;;;;;;;13.45;83.10;99970.09;4915259;29;20439;-78
2023/03/15 00:04:13;;;;;;;60.38;38.65;;;;;;;13.40;83.39;99969.78;4952332;28;20249;-80
2023/03/15 00:06:42;;;;;;;62.15;40.03;;;;;;;13.39;83.83;99978.75;4952529;28;20066;-78
2023/03/15 00:09:23;;;;;;;63.78;39.72;;;;;;;13.47;83.46;100007.25;4929091;28;20126;-78
2023/03/15 00:11:51;;;;;;;64.88;40.92;;;;;;;13.33;83.54;99967.97;4924823;28;20684;-80
2023/03/15 00:14:17;;;;;;;65.57;41.60;;;;;;;13.45;83.41;99982.59;4929098;28;20051;-79
2023/03/15 00:16:44;;;;;;;71.43;42.08;;;;;;;13.25;84.23;99964.28;4939568;28;20109;-80
2023/03/15 00:19:11;;;;;;;68.95;43.25;;;;;;;13.54;83.42;100002.06;4936763;28;20077;-79
2023/03/15 00:21:42;;;;;;;63.60;41.92;;;;;;;13.46;83.81;99979.75;4950828;28;20050;-79
2023/03/15 00:24:14;;;;;;;73.72;42.33;;;;;;;13.48;83.60;99992.94;4955410;28;20505;-79
2023/03/15 00:26:40;;;;;;;62.80;39.22;;;;;;;13.55;83.47;99995.75;4955978;28;20140;-78
2023/03/15 00:29:10;;;;;;;65.45;39.17;;;;;;;13.61;83.28;100008.38;4953754;28;20057;-79
2023/03/15 00:31:46;;;;;;;71.50;41.50;;;;;;;13.45;83.24;99985.28;4933515;28;20439;-77
2023/03/15 00:34:17;;;;;;;66.88;41.83;;;;;;;12.96;82.75;99911.53;4946929;28;20047;-78
2023/03/15 00:36:47;;;;;;;71.30;44.55;;;;;;;13.57;81.45;99999.06;4949222;28;20721;-76
2023/03/15 00:39:14;;;;;;;74.47;46.33;;;;;;;13.71;80.53;100025.03;4932823;28;20505;-79
2023/03/15 00:41:45;;;;;;;77.22;46.33;;;;;;;13.55;80.12;100004.56;4936840;28;20501;-79
2023/03/15 00:44:12;;;;;;;76.60;44.87;;;;;;;13.32;80.42;99983.09;4950148;28;20057;-78
2023/03/15 00:46:39;;;;;;;75.30;46.88;;;;;;;13.58;81.22;100038.06;4929634;28;20443;-80
2023/03/15 00:49:05;;;;;;;79.50;45.42;;;;;;;13.28;80.91;99989.81;4934673;28;20141;-80
2023/03/15 00:51:32;;;;;;;70.15;42.97;;;;;;;13.30;80.99;99995.81;4949598;28;20057;-79
2023/03/15 00:53:59;;;;;;;80.68;47.35;;;;;;;13.61;80.32;100035.06;4955311;28;20054;-78
2023/03/15 00:56:28;;;;;;;83.43;48.28;;;;;;;12.92;80.33;99947.50;4936106;28;20385;-77
2023/03/15 00:58:56;;;;;;;83.28;48.33;;;;;;;13.10;80.84;99994.44;4954866;28;20488;-79
2023/03/15 01:01:31;;;;;;;77.60;46.53;;;;;;;13.34;81.41;100046.94;4945644;28;20058;-79
2023/03/15 01:04:00;;;;;;;85.15;46.63;;;;;;;13.23;81.30;100032.91;4952211;28;20059;-79
2023/03/15 01:06:31;;;;;;;83.13;47.97;;;;;;;12.94;81.39;99998.78;4947294;28;20050;-77
2023/03/15 01:09:40;;;;;;;82.32;49.60;;;;;;;13.35;81.79;100073.44;4944966;28;20776;-79
2023/03/15 01:12:14;;;;;;;86.55;46.67;;;;;;;13.34;81.50;100058.41;4953552;28;20054;-76
2023/03/15 01:14:43;;;;;;;81.97;46.85;;;;;;;13.26;81.22;100059.22;4944065;28;20046;-79
2023/03/15 01:17:10;;;;;;;81.95;48.88;;;;;;;12.95;81.65;100019.09;4944789;28;20050;-80
2023/03/15 01:19:36;;;;;;;81.45;48.67;;;;;;;13.36;81.66;100092.91;4953410;28;20047;-79
2023/03/15 01:22:11;;;;;;;85.03;48.60;;;;;;;13.14;81.91;100070.41;4951902;28;20078;-77
2023/03/15 01:24:38;;;;;;;69.47;42.78;;;;;;;13.18;81.62;100087.72;4952393;28;20074;-78
2023/03/15 01:27:12;;;;;;;71.15;42.40;;;;;;;13.10;82.05;100069.06;4955635;28;20055;-79
2023/03/15 01:29:39;;;;;;;69.72;43.70;;;;;;;12.91;81.22;100039.06;4957418;28;20059;-80
2023/03/15 01:32:07;;;;;;;73.93;42.88;;;;;;;12.27;81.54;99944.78;4931508;28;20478;-79
2023/03/15 01:34:34;;;;;;;69.15;41.95;;;;;;;13.40;80.37;100108.44;4947663;28;20051;-80
2023/03/15 01:37:04;;;;;;;64.20;40.72;;;;;;;12.79;80.38;100008.41;4929052;28;20407;-79
2023/03/15 01:39:38;;;;;;;67.03;39.72;;;;;;;13.36;79.24;100099.09;4931373;28;20054;-77
2023/03/15 01:42:05;;;;;;;61.10;37.85;;;;;;;13.18;79.67;100101.03;4927249;28;20547;-78
2023/03/15 01:44:53;;;;;;;62.03;36.72;;;;;;;13.20;79.50;100117.69;4933617;28;20421;-78
2023/03/15 01:47:44;;;;;;;57.70;36.42;;;;;;;12.88;79.25;100083.84;4943897;28;20069;-79
2023/03/15 01:50:12;;;;;;;52.65;34.38;;;;;;;12.87;78.08;100080.38;4932897;28;20055;-78
2023/03/15 01:52:40;;;;;;;60.42;36.60;;;;;;;12.99;78.73;100108.34;4958717;28;20080;-77
2023/03/15 01:55:14;;;;;;;57.20;35.45;;;;;;;13.01;78.64;100106.38;4930783;28;20400;-79
2023/03/15 01:57:50;;;;;;;54.22;34.55;;;;;;;13.08;78.31;100121.69;4931335;28;20113;-76
2023/03/15 02:00:22;;;;;;;57.10;35.05;;;;;;;12.94;78.83;100107.19;4937139;28;20129;-81
2023/03/15 02:03:00;;;;;;;59.55;36.42;;;;;;;12.54;79.01;100048.31;4932321;28;20062;-78
2023/03/15 02:05:32;;;;;;;60.20;38.03;;;;;;;12.53;78.98;100046.66;4914638;29;20047;-79
2023/03/15 02:08:01;;;;;;;58.28;35.88;;;;;;;12.92;79.43;100110.00;4930810;29;20440;-78
2023/03/15 02:10:34;;;;;;;58.85;35.65;;;;;;;12.72;79.88;100084.63;4912152;29;20797;-76
2023/03/15 02:13:02;;;;;;;54.90;33.92;;;;;;;12.65;79.97;100081.00;4910949;29;20062;-81
2023/03/15 02:15:32;;;;;;;53.60;34.45;;;;;;;12.93;79.91;100124.97;4928851;29;20133;-79
2023/03/15 02:18:03;;;;;;;57.10;34.17;;;;;;;12.89;80.01;100120.13;4913308;29;20130;-80
2023/03/15 02:20:37;;;;;;;57.15;34.50;;;;;;;12.93;80.62;100130.31;4913007;29;20230;-80
2023/03/15 02:23:16;;;;;;;54.65;33.15;;;;;;;12.93;80.05;100121.50;4907386;29;20051;-80
2023/03/15 02:26:06;;;;;;;51.95;33.38;;;;;;;12.53;79.85;100057.31;4912869;29;20251;-80
2023/03/15 02:28:36;;;;;;;57.70;32.90;;;;;;;12.91;79.93;100134.13;4908402;29;20363;-80
2023/03/15 02:31:06;;;;;;;51.45;33.13;;;;;;;12.92;79.99;100131.31;4916334;28;20053;-81
2023/03/15 02:33:48;;;;;;;59.22;35.90;;;;;;;12.87;79.56;100127.50;4953161;28;20059;-81
2023/03/15 02:36:27;;;;;;;54.97;33.00;;;;;;;12.81;80.22;100131.63;4933312;28;20216;-80
2023/03/15 02:38:54;;;;;;;55.92;34.50;;;;;;;12.85;80.51;100150.78;4924375;28;20051;-80
2023/03/15 02:41:32;;;;;;;56.97;34.78;;;;;;;12.86;80.14;100152.44;4924386;28;20153;-80
2023/03/15 02:44:24;;;;;;;58.80;33.90;;;;;;;12.65;80.60;100132.41;4955574;28;20062;-81
2023/03/15 02:46:55;;;;;;;;;;;;;;;12.80;80.56;100159.25;4947699;28;20457;-80
2023/03/15 02:49:30;;;;;;;53.88;31.00;;;;;;;12.67;80.72;100156.19;4935780;28;19926;-80
2023/03/15 02:51:59;;;;;;;55.92;31.05;;;;;;;12.58;80.99;100145.53;4923430;28;20428;-79
2023/03/15 02:54:25;;;;;;;47.30;29.42;;;;;;;12.73;81.03;100168.88;4932719;28;20059;-78
2023/03/15 02:56:58;;;;;;;52.75;28.67;;;;;;;12.76;80.27;100168.56;4927602;28;20117;-80
2023/03/15 02:59:28;;;;;;;48.13;27.17;;;;;;;12.85;80.06;100167.59;4949867;28;20121;-80
2023/03/15 03:01:59;;;;;;;47.58;28.08;;;;;;;12.10;79.43;100053.00;4930656;28;20637;-80
2023/03/15 03:04:32;;;;;;;41.53;27.45;;;;;;;12.63;79.80;100147.72;4923402;28;20659;-80
2023/03/15 03:06:59;;;;;;;46.63;26.88;;;;;;;12.83;79.31;100180.25;4908999;28;20538;-77
2023/03/15 03:09:28;;;;;;;40.10;26.70;;;;;;;12.66;79.39;100152.72;4920234;28;20055;-80
2023/03/15 03:12:09;;;;;;;41.70;27.38;;;;;;;12.72;79.68;100172.53;4908591;28;20047;-80
2023/03/15 03:14:43;;;;;;;46.00;27.08;;;;;;;12.74;79.62;100173.22;4925238;28;20051;-82
2023/03/15 03:17:11;;;;;;;52.03;26.67;;;;;;;12.72;78.76;100156.53;4935719;28;20460;-81
2023/03/15 03:19:53;;;;;;;38.70;23.98;;;;;;;12.82;78.21;100173.25;4930578;28;20311;-82
2023/03/15 03:22:23;;;;;;;43.10;24.33;;;;;;;12.93;78.38;100210.25;4905481;28;20062;-79
2023/03/15 03:24:53;;;;;;;43.75;24.27;;;;;;;12.71;77.88;100177.03;4887845;28;20254;-79
2023/03/15 03:27:23;;;;;;;41.95;24.55;;;;;;;12.79;78.03;100201.06;4934538;28;20308;-80
2023/03/15 03:29:53;;;;;;;40.53;24.45;;;;;;;12.70;78.47;100187.88;4936272;28;20038;-80
2023/03/15 03:32:20;;;;;;;38.17;24.00;;;;;;;12.59;78.71;100172.97;4917458;28;20066;-79
2023/03/15 03:34:50;;;;;;;43.60;24.50;;;;;;;12.67;79.12;100196.16;4932582;29;20055;-78
2023/03/15 03:37:22;;;;;;;42.90;25.85;;;;;;;12.75;79.53;100207.69;4912141;29;20059;-78
2023/03/15 03:39:50;;;;;;;47.55;25.23;;;;;;;12.86;79.44;100222.53;4921179;29;20063;-79
2023/03/15 03:42:19;;;;;;;33.17;22.52;;;;;;;12.88;79.22;100223.22;4922175;29;20299;-79
2023/03/15 03:44:46;;;;;;;42.05;24.77;;;;;;;12.90;78.95;100228.38;4919892;29;20812;-80
2023/03/15 03:47:13;;;;;;;44.47;24.25;;;;;;;12.85;78.88;100231.53;4896130;29;20078;-76
2023/03/15 03:49:39;;;;;;;44.60;23.63;;;;;;;12.73;78.86;100207.00;4952906;28;20047;-80
2023/03/15 03:52:06;;;;;;;35.00;22.10;;;;;;;13.02;77.60;100238.59;4914371;28;20110;-81
2023/03/15 03:54:41;;;;;;;39.47;22.50;;;;;;;12.83;77.67;100222.84;4934525;28;20058;-79
2023/03/15 03:57:09;;;;;;;40.35;25.90;;;;;;;12.46;77.54;100149.47;4931633;28;20775;-81
2023/03/15 03:59:36;;;;;;;47.33;26.95;;;;;;;12.64;76.74;100172.50;4924083;28;20512;-77
2023/03/15 04:02:11;;;;;;;43.28;25.70;;;;;;;12.78;77.34;100206.53;4919069;28;20078;-78
2023/03/15 04:04:40;;;;;;;44.75;25.38;;;;;;;12.88;76.46;100225.88;4912170;29;20050;-80
2023/03/15 04:07:10;;;;;;;43.95;27.67;;;;;;;12.89;75.95;100237.34;4931355;29;20268;-81
2023/03/15 04:09:36;;;;;;;44.83;26.02;;;;;;;12.82;74.96;100221.19;4912156;28;20063;-79
2023/03/15 04:12:09;;;;;;;43.92;27.00;;;;;;;12.80;74.97;100223.19;4913393;28;20090;-79
2023/03/15 04:14:35;;;;;;;41.15;24.75;;;;;;;12.74;75.34;100218.47;4924770;28;20051;-78
2023/03/15 04:17:11;;;;;;;46.55;27.10;;;;;;;12.61;74.48;100190.47;4935797;28;20381;-81
2023/03/15 04:19:37;;;;;;;43.05;25.67;;;;;;;12.85;72.23;100226.19;4949695;28;20054;-78
2023/03/15 04:22:05;;;;;;;41.55;24.58;;;;;;;12.55;72.56;100183.13;4934162;28;20086;-78
2023/03/15 04:24:39;;;;;;;44.30;25.60;;;;;;;12.37;71.45;100147.75;4923640;28;20460;-78
2023/03/15 04:27:13;;;;;;;35.85;24.80;;;;;;;12.59;70.86;100189.78;4949645;28;20153;-80
2023/03/15 04:29:42;;;;;;;35.80;24.98;;;;;;;12.65;71.23;100214.13;4950952;28;20050;-78
2023/03/15 04:32:09;;;;;;;42.25;24.63;;;;;;;12.23;70.53;100148.34;4921605;28;20082;-80
2023/03/15 04:34:39;;;;;;;41.63;25.67;;;;;;;12.46;70.54;100184.09;4928422;29;20073;-77
2023/03/15 04:37:06;;;;;;;43.10;24.85;;;;;;;12.07;70.97;100136.63;4932000;29;20047;-79
2023/03/15 04:39:33;;;;;;;43.33;25.33;;;;;;;11.67;70.75;100076.81;4928544;29;20106;-79
2023/03/15 04:42:04;;;;;;;42.55;25.48;;;;;;;12.32;70.82;100198.81;4915703;29;20054;-77
2023/03/15 04:44:34;;;;;;;38.47;25.30;;;;;;;12.33;70.15;100213.81;4927127;29;20408;-79
2023/03/15 04:47:13;;;;;;;42.92;25.20;;;;;;;12.50;70.60;100254.66;4927530;29;20078;-79
2023/03/15 04:49:40;;;;;;;37.97;24.23;;;;;;;11.69;68.28;100120.06;4950737;28;20047;-80
2023/03/15 04:52:24;;;;;;;39.55;24.58;;;;;;;12.42;68.93;100256.44;4933141;28;20054;-80
2023/03/15 04:54:51;;;;;;;38.45;23.95;;;;;;;12.02;69.18;100192.16;4932115;28;20605;-80
2023/03/15 04:57:18;;;;;;;33.47;24.15;;;;;;;12.39;68.31;100246.94;4932671;28;20145;-78
2023/03/15 04:59:44;;;;;;;39.35;24.65;;;;;;;11.75;67.53;100138.06;4937098;28;20058;-79
2023/03/15 05:02:12;;;;;;;39.45;24.48;;;;;;;12.46;67.62;100263.94;4952815;28;20113;-79
2023/03/15 05:04:39;;;;;;;36.63;24.17;;;;;;;12.03;68.00;100204.44;4934198;28;20260;-77
2023/03/15 05:07:08;;;;;;;39.40;25.00;;;;;;;12.44;67.63;100275.75;4931641;28;20516;-79
2023/03/15 05:09:37;;;;;;;42.75;25.52;;;;;;;12.49;67.72;100268.97;4938680;28;20105;-78
2023/03/15 05:12:11;;;;;;;;;;;;;;;12.48;67.20;100261.97;4949436;28;20058;-79
2023/03/15 05:14:46;;;;;;;37.75;24.88;;;;;;;12.53;67.34;100254.34;4930132;28;19930;-80
2023/03/15 05:17:14;;;;;;;39.92;26.50;;;;;;;12.51;66.84;100261.66;4930008;28;20054;-77
2023/03/15 05:19:41;;;;;;;39.83;25.13;;;;;;;12.35;66.08;100240.25;4926390;28;20485;-80
2023/03/15 05:22:08;;;;;;;40.17;24.98;;;;;;;12.22;65.60;100230.03;4922889;28;20342;-80
2023/03/15 05:24:37;;;;;;;36.15;24.98;;;;;;;12.31;66.72;100244.22;4923227;28;20046;-79
2023/03/15 05:27:12;;;;;;;42.30;24.98;;;;;;;12.40;65.42;100256.56;4928917;28;20047;-79
2023/03/15 05:29:45;;;;;;;37.28;23.02;;;;;;;12.36;65.54;100241.94;4931103;28;20082;-79
2023/03/15 05:32:12;;;;;;;43.13;25.85;;;;;;;12.46;66.42;100269.28;4929528;28;20413;-79
2023/03/15 05:34:53;;;;;;;46.03;25.27;;;;;;;12.52;66.33;100273.13;4940059;28;20419;-79
2023/03/15 05:37:22;;;;;;;34.42;19.88;;;;;;;12.25;64.69;100223.56;4930609;28;20438;-80
2023/03/15 05:39:49;;;;;;;47.05;23.27;;;;;;;12.54;64.51;100284.47;4928721;28;20552;-79
2023/03/15 05:42:25;;;;;;;45.38;24.75;;;;;;;12.48;63.59;100285.94;4945434;28;20057;-79
2023/03/15 05:44:56;;;;;;;40.53;23.60;;;;;;;12.44;63.42;100287.22;4929038;28;20430;-80
2023/03/15 05:47:24;;;;;;;37.80;22.40;;;;;;;12.29;63.70;100267.50;4908669;28;20118;-78
2023/03/15 05:49:52;;;;;;;38.38;24.40;;;;;;;12.40;63.62;100307.16;4930743;28;20051;-79
2023/03/15 05:52:18;;;;;;;39.10;24.17;;;;;;;12.32;63.42;100291.13;4928972;28;20755;-78
2023/03/15 05:54:45;;;;;;;39.30;24.30;;;;;;;12.34;64.18;100297.97;4923392;29;20434;-79
2023/03/15 05:57:14;;;;;;;36.03;23.40;;;;;;;12.14;64.76;100270.72;4922054;28;20055;-78
2023/03/15 05:59:43;;;;;;;28.95;20.33;;;;;;;12.11;63.13;100257.72;4929356;28;20082;-79
2023/03/15 06:02:20;;;;;;;35.20;20.50;;;;;;;12.43;61.64;100306.88;4925000;28;20320;-79
2023/03/15 06:04:47;;;;;;;33.83;21.48;;;;;;;12.44;61.32;100313.03;4930311;28;20142;-79
2023/03/15 06:07:13;;;;;;;29.35;19.73;;;;;;;12.42;61.41;100315.00;4926251;28;20062;-78
2023/03/15 06:09:40;;;;;;;38.03;19.00;;;;;;;12.31;60.58;100308.94;4911703;29;20061;-79
2023/03/15 06:12:07;;;;;;;30.38;18.10;;;;;;;12.44;59.71;100321.00;4902861;28;20396;-78
2023/03/15 06:14:33;;;;;;;32.63;18.48;;;;;;;12.12;61.78;100279.84;4945065;28;20106;-80
2023/03/15 06:17:00;;;;;;;37.00;19.73;;;;;;;11.64;60.57;100202.09;4941558;28;20404;-79
2023/03/15 06:19:26;;;;;;;36.95;18.25;;;;;;;12.35;60.45;100328.09;4933853;28;20105;-78
2023/03/15 06:21:53;;;;;;;39.60;19.65;;;;;;;12.19;60.24;100320.81;4912320;29;20066;-79
2023/03/15 06:24:23;;;;;;;30.20;18.63;;;;;;;12.35;60.51;100352.03;4927155;29;20047;-79
2023/03/15 06:26:50;;;;;;;36.92;18.95;;;;;;;12.28;60.75;100343.00;4915762;29;20050;-76
2023/03/15 06:29:17;;;;;;;38.45;18.73;;;;;;;12.13;61.16;100332.91;4916858;29;20129;-78
2023/03/15 06:31:48;;;;;;;27.20;15.85;;;;;;;12.11;59.24;100326.06;4931160;28;20133;-81
2023/03/15 06:34:15;;;;;;;27.63;16.50;;;;;;;12.30;58.82;100364.97;4940400;28;20061;-79
2023/03/15 06:36:42;;;;;;;26.35;15.30;;;;;;;12.41;55.26;100362.09;4953508;28;20110;-81
2023/03/15 06:39:11;;;;;;;24.63;14.65;;;;;;;12.13;55.41;100329.41;4903101;29;20102;-80
2023/03/15 06:41:40;;;;;;;26.05;14.50;;;;;;;12.20;55.26;100341.09;4939119;28;20331;-81
2023/03/15 06:44:10;;;;;;;24.92;13.63;;;;;;;12.00;55.38;100327.13;4912889;28;20419;-79
2023/03/15 06:46:38;;;;;;;25.70;14.35;;;;;;;12.28;54.62;100346.53;4926055;28;20054;-80
2023/03/15 06:49:07;;;;;;;16.77;10.50;;;;;;;12.72;52.60;100390.94;4935419;28;20457;-79
2023/03/15 06:51:34;;;;;;;18.40;9.10;;;;;;;12.59;49.35;100376.19;4946345;28;20061;-78
2023/03/15 06:54:05;;;;;;;19.40;9.48;;;;;;;12.43;49.90;100346.81;4935135;28;20050;-79
2023/03/15 06:56:42;;;;;;;16.55;9.02;;;;;;;12.57;49.94;100386.19;4928399;29;20062;-77
2023/03/15 06:59:14;;;;;;;12.07;8.13;;;;;;;12.43;49.64;100376.09;4931411;29;20138;-77
2023/03/15 07:01:48;;;;;;;12.27;7.88;;;;;;;12.44;48.46;100387.56;4917494;29;20073;-78
2023/03/15 07:04:15;;;;;;;15.20;8.48;;;;;;;12.45;49.73;100400.72;4929822;28;20074;-78
2023/03/15 07:06:42;;;;;;;16.48;8.30;;;;;;;12.44;49.31;100385.72;4906998;29;20052;-79
2023/03/15 07:09:12;;;;;;;21.33;8.48;;;;;;;12.52;49.13;100412.41;4934214;28;20129;-78
2023/03/15 07:11:40;;;;;;;16.80;8.27;;;;;;;12.33;50.79;100375.31;4924716;29;20051;-79
2023/03/15 07:14:10;;;;;;;15.30;7.13;;;;;;;12.41;48.55;100372.72;4929638;28;20113;-78
2023/03/15 07:16:40;;;;;;;13.07;6.82;;;;;;;12.82;49.87;100423.66;4949647;28;20113;-78
2023/03/15 07:19:14;;;;;;;11.88;5.07;;;;;;;12.89;42.01;100430.03;4948807;28;20125;-81
2023/03/15 07:21:43;;;;;;;7.30;4.43;;;;;;;12.32;44.83;100361.16;4918826;28;20042;-80
2023/03/15 07:24:11;;;;;;;12.85;4.63;;;;;;;12.83;45.77;100436.81;4929253;28;20109;-81
2023/03/15 07:26:41;;;;;;;10.38;3.83;;;;;;;12.78;45.84;100444.44;4908733;29;20102;-79
2023/03/15 07:29:07;;;;;;;6.10;3.20;;;;;;;12.61;42.76;100432.81;4906170;29;20486;-79
2023/03/15 07:31:37;;;;;;;3.80;2.70;;;;;;;12.72;39.98;100447.72;4915327;28;20232;-79
2023/03/15 07:34:05;;;;;;;6.55;3.08;;;;;;;12.38;42.28;100429.78;4916623;28;20505;-79
2023/03/15 07:36:31;;;;;;;4.82;2.70;;;;;;;12.11;40.16;100388.13;4912313;28;20039;-80
2023/03/15 07:39:01;;;;;;;4.80;2.80;;;;;;;12.44;40.69;100465.59;4911483;28;20332;-79
2023/03/15 07:41:33;;;;;;;11.07;3.20;;;;;;;11.86;43.28;100370.19;4923900;28;20069;-79
2023/03/15 07:44:00;;;;;;;4.90;2.80;;;;;;;12.23;43.36;100422.47;4901941;29;20062;-80
2023/03/15 07:46:26;;;;;;;6.22;2.55;;;;;;;12.15;40.50;100416.06;4894320;29;20202;-79
2023/03/15 07:48:58;;;;;;;5.88;2.95;;;;;;;12.37;41.11;100461.88;4926577;28;20228;-79
2023/03/15 07:51:26;;;;;;;2.72;1.80;;;;;;;12.27;39.51;100448.63;4956414;28;20109;-79
2023/03/15 07:53:53;;;;;;;7.50;3.00;;;;;;;12.25;42.37;100453.25;4941515;28;20164;-78
2023/03/15 07:56:23;;;;;;;3.17;2.30;;;;;;;12.40;41.76;100466.88;4955534;28;20534;-78
2023/03/15 07:58:54;;;;;;;4.47;2.47;;;;;;;12.44;42.79;100478.91;4925774;28;20503;-78
2023/03/15 08:01:21;;;;;;;5.30;2.35;;;;;;;11.36;43.60;100302.38;4932838;28;20203;-77
2023/03/15 08:03:47;;;;;;;5.07;2.05;;;;;;;12.42;42.33;100496.03;4928936;28;20113;-79
2023/03/15 08:06:19;;;;;;;3.83;2.30;;;;;;;12.37;41.83;100501.81;4934028;28;20055;-81
2023/03/15 08:08:46;;;;;;;5.03;2.65;;;;;;;12.27;40.44;100499.22;4920311;28;20175;-78
2023/03/15 08:11:13;;;;;;;9.20;2.90;;;;;;;11.68;43.30;100429.50;4920064;28;20074;-80
2023/03/15 08:13:43;;;;;;;4.30;2.72;;;;;;;12.15;43.19;100519.03;4920778;28;20569;-80
2023/03/15 08:16:10;;;;;;;6.18;2.50;;;;;;;12.09;43.26;100528.44;4904340;28;20425;-81
2023/03/15 08:18:40;;;;;;;3.47;2.40;;;;;;;11.95;45.33;100532.44;4922930;28;20202;-80
2023/03/15 08:21:11;;;;;;;6.47;3.20;;;;;;;11.50;48.24;100489.75;4893271;28;20654;-79
2023/03/15 08:23:48;;;;;;;23.42;3.80;;;;;;;11.61;52.05;100549.91;4887595;28;20105;-81
2023/03/15 08:26:18;;;;;;;8.85;3.05;;;;;;;11.28;53.61;100528.13;4914295;28;20043;-80
2023/03/15 08:28:48;;;;;;;11.10;3.80;;;;;;;11.17;56.00;100546.91;4901295;28;20043;-78
2023/03/15 08:31:20;;;;;;;8.48;3.80;;;;;;;10.82;57.98;100521.75;4903062;28;20094;-81
2023/03/15 08:33:50;;;;;;;;;;;;;;;11.01;66.15;100569.53;4937720;28;20058;-78
2023/03/15 08:36:16;;;;;;;13.48;4.75;;;;;;;10.82;63.81;100556.25;4904324;28;20156;-81
2023/03/15 08:38:46;;;;;;;7.55;4.70;;;;;;;10.84;64.96;100572.91;4899506;29;20253;-79
2023/03/15 08:41:19;;;;;;;11.20;5.07;;;;;;;10.18;66.84;100477.94;4893861;29;20438;-79
2023/03/15 08:43:46;;;;;;;12.40;4.60;;;;;;;10.84;66.96;100579.03;4912896;28;20345;-80
2023/03/15 08:46:14;;;;;;;10.60;4.47;;;;;;;11.30;66.74;100579.31;4911602;28;20069;-79
2023/03/15 08:48:45;;;;;;;8.95;4.15;;;;;;;11.59;66.26;100595.22;4916166;28;20135;-80
2023/03/15 08:51:12;;;;;;;11.60;4.03;;;;;;;12.05;65.65;100606.88;4907716;28;20515;-79
2023/03/15 08:53:41;;;;;;;10.30;3.72;;;;;;;12.03;64.08;100557.47;4919109;28;20065;-76
2023/03/15 08:56:08;;;;;;;7.10;4.03;;;;;;;12.45;62.98;100600.41;4938160;28;20098;-78
2023/03/15 08:58:38;;;;;;;6.63;3.53;;;;;;;12.07;61.80;100561.53;4940070;28;20298;-80
2023/03/15 09:01:12;;;;;;;6.40;3.17;;;;;;;12.52;62.92;100620.09;4920501;28;20339;-78
2023/03/15 09:03:41;;;;;;;11.93;4.80;;;;;;;12.58;62.69;100627.50;4908269;29;20138;-80
2023/03/15 09:06:19;;;;;;;7.55;2.85;;;;;;;12.98;63.67;100636.09;4895921;29;20051;-79
2023/03/15 09:08:47;;;;;;;9.70;4.72;;;;;;;12.94;61.18;100640.06;4919557;29;20106;-78
2023/03/15 09:11:15;;;;;;;16.95;8.75;;;;;;;12.31;61.55;100553.81;4901155;29;20051;-79
2023/03/15 09:13:42;;;;;;;10.68;4.47;;;;;;;12.59;61.09;100631.84;4900772;29;20118;-78
2023/03/15 09:16:08;;;;;;;14.77;5.78;;;;;;;12.60;61.85;100643.34;4908512;29;20082;-78
2023/03/15 09:18:35;;;;;;;9.00;5.00;;;;;;;12.41;62.40;100628.31;4918988;29;20215;-77
2023/03/15 09:21:08;;;;;;;7.80;4.22;;;;;;;12.69;62.75;100647.78;4908938;28;20576;-78
2023/03/15 09:23:38;;;;;;;13.50;6.50;;;;;;;12.75;62.22;100662.34;4938987;28;20043;-78
2023/03/15 09:26:08;;;;;;;12.55;7.50;;;;;;;12.72;61.25;100638.63;4925109;28;20078;-77
2023/03/15 09:28:35;;;;;;;8.95;5.95;;;;;;;12.82;58.39;100650.09;4916807;28;20573;-78
2023/03/15 09:31:08;;;;;;;12.20;5.85;;;;;;;12.79;59.03;100655.69;4934580;28;20050;-79
2023/03/15 09:33:36;;;;;;;8.52;5.43;;;;;;;13.00;60.48;100653.59;4946995;28;20148;-77
2023/03/15 09:36:07;;;;;;;15.27;6.18;;;;;;;13.09;58.46;100653.72;4920603;28;20440;-78
2023/03/15 09:38:42;;;;;;;12.02;6.50;;;;;;;13.20;58.80;100648.13;4918782;28;20054;-78
2023/03/15 09:41:30;;;;;;;11.77;5.80;;;;;;;13.33;55.77;100655.81;4939715;28;20055;-78
2023/03/15 09:44:29;;;;;;;12.15;5.50;;;;;;;13.35;55.46;100660.00;4923865;28;20047;-78
2023/03/15 09:47:09;;;;;;;8.32;4.55;;;;;;;13.37;57.49;100615.31;4915860;28;20042;-78
2023/03/15 09:50:29;;;;;;;8.35;4.63;;;;;;;13.21;58.11;100517.38;4937795;28;20077;-78
2023/03/15 09:53:05;;;;;;;7.82;4.47;;;;;;;14.31;57.12;100635.94;4910943;28;20109;-78
2023/03/15 09:55:36;;;;;;;14.40;5.75;;;;;;;14.70;55.43;100659.50;4928033;28;20062;-80
2023/03/15 09:58:12;;;;;;;6.15;4.15;;;;;;;14.42;55.34;100626.81;4924429;28;20465;-78
2023/03/15 10:00:53;;;;;;;9.02;4.15;;;;;;;14.57;52.71;100651.13;4920061;28;20069;-78
2023/03/15 10:03:44;;;;;;;14.82;5.22;;;;;;;14.74;54.70;100635.97;4929556;28;20182;-79
2023/03/15 10:06:25;;;;;;;9.35;4.70;;;;;;;15.31;54.90;100681.53;4902456;29;20051;-78
2023/03/15 10:09:32;;;;;;;6.90;4.43;;;;;;;14.77;52.16;100589.38;4904846;29;20328;-77
2023/03/15 10:12:08;;;;;;;11.70;5.45;;;;;;;15.07;50.32;100658.28;4828813;29;20057;-80
2023/03/15 10:14:59;;;;;;;8.13;4.50;;;;;;;15.64;53.43;100696.78;4892716;29;20051;-77
2023/03/15 10:17:37;;;;;;;7.90;5.05;;;;;;;15.59;52.22;100694.59;4914478;29;20059;-78
2023/03/15 10:20:17;;;;;;;13.00;4.65;;;;;;;15.43;50.39;100703.44;4910005;29;20445;-79
2023/03/15 10:23:10;;;;;;;15.32;6.38;;;;;;;15.26;49.02;100666.97;4935810;28;20121;-79
2023/03/15 10:25:44;;;;;;;13.57;5.72;;;;;;;14.06;47.88;100476.66;4930491;28;20337;-78
2023/03/15 10:28:23;;;;;;;14.73;5.07;;;;;;;15.71;50.54;100695.13;4904866;28;20043;-80
2023/03/15 10:30:51;;;;;;;15.00;5.43;;;;;;;15.80;50.36;100673.56;4912329;28;20478;-78
2023/03/15 10:33:32;;;;;;;9.20;5.07;;;;;;;16.13;51.44;100723.53;4927885;28;20047;-77
2023/03/15 10:36:03;;;;;;;10.65;6.03;;;;;;;15.97;45.83;100714.53;4924008;28;20557;-77
2023/03/15 10:38:43;;;;;;;9.15;5.03;;;;;;;15.97;45.39;100730.59;4929964;28;20055;-78
2023/03/15 10:41:40;;;;;;;8.02;4.15;;;;;;;16.25;49.12;100730.22;4912452;28;20176;-78
2023/03/15 10:44:25;;;;;;;10.40;5.72;;;;;;;16.32;47.32;100735.75;4924773;28;20162;-80
2023/03/15 10:47:10;;;;;;;7.90;5.47;;;;;;;15.84;44.56;100698.13;4916390;28;20047;-78
2023/03/15 10:49:58;;;;;;;10.45;6.20;;;;;;;15.02;47.19;100582.22;4914377;28;20058;-79
2023/03/15 10:52:37;;;;;;;16.38;7.45;;;;;;;16.16;48.12;100760.69;4898521;29;20074;-79
2023/03/15 10:55:15;;;;;;;18.80;7.72;;;;;;;15.69;49.58;100737.25;4909172;29;20482;-79
2023/03/15 10:58:11;;;;;;;9.57;5.50;;;;;;;15.72;50.99;100753.00;4882502;29;20059;-77
2023/03/15 11:01:09;;;;;;;12.88;6.85;;;;;;;15.50;50.10;100782.03;4912424;28;20187;-80
2023/03/15 11:03:37;;;;;;;13.65;6.82;;;;;;;15.07;52.38;100759.88;4945369;28;20078;-80
2023/03/15 11:06:24;;;;;;;14.82;6.68;;;;;;;13.44;57.00;100547.03;4932317;28;20444;-78
2023/03/15 11:08:51;;;;;;;8.32;5.47;;;;;;;15.23;55.35;100783.16;4929448;28;20101;-79
2023/03/15 11:11:18;;;;;;;11.68;5.97;;;;;;;15.07;57.47;100781.28;4934256;28;20083;-85
2023/03/15 11:14:02;;;;;;;15.82;7.70;;;;;;;14.92;58.85;100777.50;4952317;28;20335;-83
2023/03/15 11:16:37;;;;;;;15.75;7.65;;;;;;;14.96;57.91;100714.72;4934066;28;20051;-81
2023/03/15 11:19:16;;;;;;;12.27;7.00;;;;;;;15.34;58.19;100766.81;4954563;28;20199;-82
2023/03/15 11:21:44;;;;;;;10.30;6.43;;;;;;;14.63;59.48;100733.28;4953591;28;20096;-80
2023/03/15 11:24:23;;;;;;;13.45;6.47;;;;;;;14.79;59.19;100771.78;4954030;28;20624;-80
2023/03/15 11:27:02;;;;;;;16.05;8.23;;;;;;;15.00;61.84;100758.84;4930021;28;20063;-79
2023/03/15 11:29:50;;;;;;;10.85;6.13;;;;;;;14.95;61.90;100755.78;4940614;28;20180;-84
2023/03/15 11:32:25;;;;;;;9.75;5.75;;;;;;;15.13;61.07;100769.91;4937104;28;20154;-83
2023/03/15 11:35:07;;;;;;;11.45;5.72;;;;;;;14.70;59.69;100672.03;4929601;28;20596;-82
2023/03/15 11:37:54;;;;;;;6.55;3.03;;;;;;;15.15;56.92;100761.75;4948614;28;20054;-79